Salsbury Cove, Maine
Current Conditions -  °F | °C
As of 7:15 AM on Saturday 20 Dec 2014 (Local Time) from KBHB Reporting Station
Clear Clear  
Wind Chill: -7°   Ceiling: Unl
Heat Index: -7°   Visibility: 10mi
Dew Point: -8°   Wind: 3mph
Humidity: 93%   Direction: 340°NNW
Pressure: 30.28"   Gusts: NA
Location:  44.43°N, 68.28°W
Report Text: KBHB 201215Z AUTO 34003KT 10SM CLR M07/M08 A3028 RMK AO1
Loading
Personal Weather Stations






























Interactive Weather Map New forecast layout! Learn more

10-Day Weather Forecast

Advertisements
Track Severe Weather on mobile